Little Falls, Minnesota
Current Conditions -  °F | °C
As of 11:38 PM on Thursday 27 Nov 2014 (Local Time) from KLXL Reporting Station
Light Snow Light Snow  
Wind Chill: -3°   Ceiling: 800
Heat Index:   Visibility: 2mi
Dew Point:   Wind: 6mph
Humidity: 79%   Direction: 140°SE
Pressure: 30.21"   Gusts: NA
Location:  45.98°N, 94.37°W
Report Text: KLXL 280538Z AUTO 14005KT 2SM -SN OVC008 M14/M17 A3021 RMK AO2
Loading
Personal Weather Stations






























Interactive Weather Map New forecast layout! Learn more

10-Day Weather Forecast

Advertisements
Track Severe Weather on mobile